Time;durP1;ratioP1;P1;durP2;ratioP2;P2;SDS_P1;SDS_P2;PMS_P1;PMS_P2;Temp;Humidity;BMP_temperature;BMP_pressure;BME280_temperature;BME280_humidity;BME280_pressure;Samples;Min_cycle;Max_cycle;Signal;HPM_P1;HPM_P2
2023/01/24 00:03:11;;;;;;;8.25;4.43;;;4.00;32.80;;;;;;20568110;28;20042;-47
2023/01/24 00:13:14;;;;;;;12.63;4.87;;;4.00;32.60;;;;;;20560596;28;20161;-47
2023/01/24 00:23:14;;;;;;;6.22;3.78;;;4.00;34.00;;;;;;20555029;28;20572;-47
2023/01/24 00:33:16;;;;;;;8.68;4.07;;;4.00;30.60;;;;;;20552763;28;20406;-47
2023/01/24 00:43:17;;;;;;;11.95;4.97;;;4.00;29.90;;;;;;20545660;28;20078;-47
2023/01/24 00:53:19;;;;;;;7.45;3.25;;;3.90;30.70;;;;;;20547471;28;20317;-47
2023/01/24 01:03:20;;;;;;;9.98;4.45;;;4.00;29.90;;;;;;20559327;28;20086;-47
2023/01/24 01:13:21;;;;;;;10.32;5.40;;;4.00;29.30;;;;;;20573090;28;20134;-47
2023/01/24 01:23:22;;;;;;;8.07;4.38;;;3.90;30.90;;;;;;20570073;28;20035;-47
2023/01/24 01:33:24;;;;;;;6.18;3.85;;;3.90;30.90;;;;;;20567499;28;20054;-47
2023/01/24 01:43:27;;;;;;;4.75;2.83;;;3.90;32.10;;;;;;20554807;28;20784;-47
2023/01/24 01:53:34;;;;;;;10.38;4.78;;;3.90;31.10;;;;;;20569113;28;20574;-47
2023/01/24 02:03:42;;;;;;;7.82;3.97;;;3.90;29.90;;;;;;20575571;28;20039;-47
2023/01/24 02:13:44;;;;;;;8.85;4.47;;;3.90;30.70;;;;;;20565350;28;20096;-47
2023/01/24 02:23:58;;;;;;;9.93;4.60;;;3.90;31.70;;;;;;20543371;28;20074;-47
2023/01/24 02:33:59;;;;;;;7.45;4.30;;;3.80;34.00;;;;;;20533682;28;20870;-47
2023/01/24 02:44:05;;;;;;;11.98;5.82;;;3.80;35.40;;;;;;20549232;28;20339;-47
2023/01/24 02:54:06;;;;;;;12.65;6.40;;;3.80;34.00;;;;;;20549936;28;20062;-47
2023/01/24 03:04:10;;;;;;;9.77;4.93;;;3.80;33.60;;;;;;20544591;28;20039;-47
2023/01/24 03:34:50;;;;;;;12.73;5.32;;;3.70;33.50;;;;;;20576041;28;20821;-47
2023/01/24 03:44:52;;;;;;;10.80;4.68;;;3.70;29.90;;;;;;20577699;28;20099;-47
2023/01/24 03:54:53;;;;;;;9.18;4.18;;;3.60;30.20;;;;;;20572621;28;20102;-47
2023/01/24 04:05:12;;;;;;;9.38;4.72;;;3.70;31.00;;;;;;20571308;28;20923;-47
2023/01/24 04:15:19;;;;;;;8.68;5.45;;;3.70;31.00;;;;;;20574357;28;20050;-47
2023/01/24 04:25:21;;;;;;;8.45;4.35;;;3.60;31.90;;;;;;20570850;28;20283;-47
2023/01/24 04:35:25;;;;;;;11.50;5.03;;;3.50;31.40;;;;;;20570271;28;20108;-47
2023/01/24 04:45:26;;;;;;;9.50;5.72;;;3.50;33.30;;;;;;20572962;28;20137;-47
2023/01/24 04:55:27;;;;;;;7.22;3.45;;;3.50;35.10;;;;;;20577636;28;20522;-47
2023/01/24 05:05:28;;;;;;;8.25;4.80;;;3.60;34.50;;;;;;20565518;28;20398;-47
2023/01/24 05:15:29;;;;;;;10.05;4.35;;;3.50;32.20;;;;;;20572465;28;20487;-46
2023/01/24 05:25:30;;;;;;;7.15;4.25;;;3.50;34.00;;;;;;20568886;28;20438;-47
2023/01/24 05:35:31;;;;;;;6.60;4.15;;;3.50;35.30;;;;;;20557220;28;20046;-46
2023/01/24 05:45:32;;;;;;;7.40;4.45;;;3.50;34.00;;;;;;20554714;28;20050;-47
2023/01/24 05:55:33;;;;;;;5.85;4.40;;;3.50;35.40;;;;;;20560536;28;20039;-47
2023/01/24 06:05:34;;;;;;;10.25;4.97;;;3.50;33.50;;;;;;20571798;28;20074;-47
2023/01/24 06:15:35;;;;;;;8.48;5.80;;;3.30;34.60;;;;;;20567116;28;20045;-47
2023/01/24 06:25:36;;;;;;;8.35;5.28;;;3.30;34.00;;;;;;20553745;28;20181;-47
2023/01/24 06:36:04;;;;;;;14.80;6.45;;;3.20;34.20;;;;;;20548367;28;20536;-47
2023/01/24 06:46:05;;;;;;;10.85;4.65;;;3.20;35.20;;;;;;20553441;28;20868;-47
2023/01/24 06:56:07;;;;;;;11.93;6.43;;;3.10;36.40;;;;;;20542173;28;20464;-47
2023/01/24 07:06:08;;;;;;;11.82;5.88;;;3.20;34.40;;;;;;20545075;28;20356;-47
2023/01/24 07:16:09;;;;;;;12.93;5.15;;;3.00;35.80;;;;;;20550449;28;20118;-47
2023/01/24 07:26:11;;;;;;;10.25;5.20;;;3.00;36.80;;;;;;20545865;28;20734;-47
2023/01/24 07:36:14;;;;;;;10.30;5.45;;;3.00;39.20;;;;;;20541628;28;20101;-47
2023/01/24 07:46:15;;;;;;;13.55;7.55;;;2.90;39.40;;;;;;20561727;28;20085;-47
2023/01/24 07:56:16;;;;;;;18.67;8.10;;;2.90;39.40;;;;;;20564978;28;20070;-47
2023/01/24 08:06:17;;;;;;;10.55;5.43;;;3.00;40.50;;;;;;20556505;28;20062;-47
2023/01/24 08:16:23;;;;;;;9.95;6.65;;;3.00;42.40;;;;;;20568889;28;20513;-47
2023/01/24 08:26:24;;;;;;;9.02;4.45;;;3.00;82.50;;;;;;20565025;28;20184;-47
2023/01/24 08:36:25;;;;;;;10.90;6.32;;;3.00;81.40;;;;;;20574097;28;20047;-47
2023/01/24 08:46:26;;;;;;;9.52;5.95;;;2.90;80.20;;;;;;20565130;28;20047;-47
2023/01/24 08:56:27;;;;;;;11.52;6.43;;;2.90;77.80;;;;;;20561203;28;20062;-47
2023/01/24 09:06:28;;;;;;;10.35;5.78;;;2.90;74.60;;;;;;20560261;28;20374;-47
2023/01/24 09:16:29;;;;;;;8.70;5.43;;;2.90;67.60;;;;;;20558784;28;20070;-47
2023/01/24 09:26:30;;;;;;;11.27;4.97;;;2.90;61.00;;;;;;20551902;28;20425;-47
2023/01/24 09:36:31;;;;;;;9.88;4.82;;;2.90;74.90;;;;;;20547174;28;20047;-47
2023/01/24 09:46:41;;;;;;;12.95;6.50;;;2.80;73.90;;;;;;20553242;28;20070;-46
2023/01/24 09:56:46;;;;;;;11.88;6.50;;;2.80;80.90;;;;;;20557598;28;20070;-47
2023/01/24 10:07:01;;;;;;;12.15;5.50;;;2.80;71.10;;;;;;20553884;28;20811;-46
2023/01/24 10:17:21;;;;;;;14.73;7.25;;;2.70;81.90;;;;;;20562053;28;20148;-47
2023/01/24 10:27:30;;;;;;;10.90;6.53;;;2.90;91.10;;;;;;20559978;28;20935;-47
2023/01/24 10:37:37;;;;;;;9.93;5.10;;;3.00;76.50;;;;;;20564975;28;20043;-47
2023/01/24 10:47:47;;;;;;;6.82;4.65;;;2.90;72.00;;;;;;20572584;28;20076;-47
2023/01/24 10:57:52;;;;;;;9.70;6.20;;;3.00;68.00;;;;;;20567179;28;20934;-46
2023/01/24 11:07:59;;;;;;;9.85;6.35;;;3.00;78.20;;;;;;20568872;28;20102;-47
2023/01/24 11:18:20;;;;;;;11.18;6.25;;;3.00;76.70;;;;;;20559868;28;20061;-47
2023/01/24 11:28:29;;;;;;;11.52;6.50;;;2.90;65.20;;;;;;20572826;28;21772;-46
2023/01/24 11:38:36;;;;;;;6.45;3.72;;;2.90;73.80;;;;;;20578432;28;20132;-47
2023/01/24 11:48:54;;;;;;;11.10;5.90;;;2.90;79.40;;;;;;20569091;28;20050;-46
2023/01/24 11:59:11;;;;;;;11.68;5.60;;;2.80;81.80;;;;;;20566147;28;20768;-47
2023/01/24 12:09:29;;;;;;;10.30;5.55;;;3.00;81.60;;;;;;20560633;28;20062;-47
2023/01/24 12:20:07;;;;;;;9.10;4.18;;;3.00;85.30;;;;;;20552756;28;20301;-47
2023/01/24 12:30:14;;;;;;;8.02;4.90;;;3.10;81.40;;;;;;20556873;28;20875;-47
2023/01/24 12:40:23;;;;;;;10.73;5.10;;;3.10;80.10;;;;;;20569147;28;20479;-47
2023/01/24 12:50:27;;;;;;;7.03;4.57;;;3.20;59.70;;;;;;20577412;28;20866;-47
2023/01/24 13:00:53;;;;;;;8.82;5.38;;;3.20;56.50;;;;;;20574189;28;20030;-47
2023/01/24 13:11:17;;;;;;;11.00;5.88;;;3.10;66.30;;;;;;20569855;28;21304;-46
2023/01/24 13:21:57;;;;;;;7.45;4.45;;;3.20;72.90;;;;;;20560762;28;20898;-46
2023/01/24 13:32:14;;;;;;;10.60;5.75;;;3.30;67.50;;;;;;20562071;28;21815;-47
2023/01/24 13:42:23;;;;;;;8.63;5.13;;;3.30;80.70;;;;;;20561362;28;20428;-46
2023/01/24 13:52:30;;;;;;;11.82;5.25;;;3.40;82.00;;;;;;20570295;28;20267;-47
2023/01/24 14:02:34;;;;;;;;;;;3.20;68.30;;;;;;20555592;28;20058;-46
2023/01/24 14:12:39;;;;;;;8.73;4.53;;;3.10;69.20;;;;;;20545333;28;19957;-47
2023/01/24 14:22:45;;;;;;;10.80;4.22;;;3.20;64.10;;;;;;20554259;28;20116;-47
2023/01/24 14:32:52;;;;;;;12.07;5.07;;;3.20;63.20;;;;;;20551672;28;20091;-47
2023/01/24 14:43:05;;;;;;;12.52;6.45;;;3.20;67.90;;;;;;20560244;28;20926;-47
2023/01/24 14:53:30;;;;;;;13.63;6.05;;;3.30;74.40;;;;;;20550319;28;20046;-47
2023/01/24 15:03:34;;;;;;;11.52;5.35;;;3.20;70.00;;;;;;20555913;28;20623;-47
2023/01/24 15:13:43;;;;;;;7.13;3.72;;;3.20;78.10;;;;;;20553628;28;20046;-47
2023/01/24 15:23:49;;;;;;;15.15;6.22;;;3.20;69.80;;;;;;20555386;28;20067;-46
2023/01/24 15:33:58;;;;;;;10.10;6.33;;;2.90;60.40;;;;;;20563323;28;21925;-47
2023/01/24 15:44:06;;;;;;;9.73;5.65;;;2.90;69.90;;;;;;20573391;28;20047;-46
2023/01/24 15:54:12;;;;;;;11.88;5.25;;;2.90;79.60;;;;;;20570158;28;20079;-47
2023/01/24 16:04:16;;;;;;;9.55;4.63;;;3.00;81.20;;;;;;20571403;28;20093;-47
2023/01/24 16:14:23;;;;;;;13.27;6.50;;;3.00;79.10;;;;;;20562880;28;20097;-47
2023/01/24 16:24:24;;;;;;;;;;;2.90;83.80;;;;;;20563325;28;21806;-47
2023/01/24 16:34:24;;;;;;;11.32;5.95;;;2.90;80.70;;;;;;20565307;28;20235;-46
2023/01/24 16:44:25;;;;;;;15.38;6.82;;;2.80;68.10;;;;;;20556509;28;20043;-46
2023/01/24 16:54:29;;;;;;;12.10;7.47;;;2.70;50.30;;;;;;20543158;28;20054;-47
2023/01/24 17:04:33;;;;;;;11.27;6.93;;;2.60;63.80;;;;;;20500176;28;20042;-47
2023/01/24 17:14:35;;;;;;;12.40;7.32;;;2.50;68.90;;;;;;20524247;28;20215;-46
2023/01/24 17:24:36;;;;;;;14.60;7.20;;;2.50;68.80;;;;;;20553335;28;20426;-47
2023/01/24 17:34:37;;;;;;;10.10;5.53;;;2.40;74.50;;;;;;20554979;28;22087;-46
2023/01/24 17:44:38;;;;;;;14.90;6.47;;;2.40;76.40;;;;;;20557268;28;20077;-46
2023/01/24 17:54:39;;;;;;;12.38;7.53;;;2.30;82.40;;;;;;20552335;28;20053;-47
2023/01/24 18:04:40;;;;;;;14.82;8.93;;;2.30;80.20;;;;;;20527162;28;20062;-46
2023/01/24 18:14:42;;;;;;;11.32;6.25;;;2.40;74.60;;;;;;20529633;28;20072;-47
2023/01/24 18:24:43;;;;;;;15.77;6.90;;;2.50;76.00;;;;;;20555189;28;20074;-47
2023/01/24 18:34:44;;;;;;;9.90;5.07;;;2.50;90.40;;;;;;20555367;28;20057;-46
2023/01/24 18:44:47;;;;;;;12.88;7.03;;;2.50;92.70;;;;;;20555012;28;20047;-47
2023/01/24 18:54:48;;;;;;;16.13;7.10;;;2.40;94.60;;;;;;20548323;28;20820;-47
2023/01/24 19:04:49;;;;;;;12.57;7.15;;;2.40;97.40;;;;;;20571752;28;20038;-47
2023/01/24 19:14:50;;;;;;;14.75;7.00;;;2.30;98.80;;;;;;20568730;28;20038;-46
2023/01/24 19:24:52;;;;;;;13.05;6.18;;;2.40;97.90;;;;;;20559596;28;20619;-46
2023/01/24 19:34:53;;;;;;;15.18;5.75;;;2.30;96.20;;;;;;20555436;28;20132;-46
2023/01/24 19:44:54;;;;;;;12.55;6.50;;;2.30;99.90;;;;;;20568088;28;20046;-46
2023/01/24 19:54:55;;;;;;;11.15;6.57;;;2.30;99.90;;;;;;20588640;28;20046;-46
2023/01/24 20:04:56;;;;;;;17.67;8.70;;;2.20;99.90;;;;;;20572416;28;20043;-46
2023/01/24 20:14:57;;;;;;;13.35;8.60;;;2.30;99.90;;;;;;20570485;28;20050;-46
2023/01/24 20:24:58;;;;;;;16.27;7.82;;;2.20;99.90;;;;;;20574461;28;20034;-46
2023/01/24 20:34:59;;;;;;;15.43;8.23;;;2.20;99.90;;;;;;20566783;28;20165;-46
2023/01/24 20:45:00;;;;;;;14.43;6.75;;;2.20;97.60;;;;;;20571097;28;20034;-46
2023/01/24 20:55:02;;;;;;;19.30;7.90;;;2.10;95.30;;;;;;20566155;28;20057;-46
2023/01/24 21:05:03;;;;;;;16.77;7.82;;;1.90;98.90;;;;;;20556050;28;20256;-46
2023/01/24 21:15:04;;;;;;;18.65;9.25;;;2.10;99.90;;;;;;20556449;28;20129;-46
2023/01/24 21:25:05;;;;;;;12.65;8.57;;;2.10;99.90;;;;;;20549820;28;20158;-46
2023/01/24 21:35:07;;;;;;;11.18;6.65;;;2.20;99.90;;;;;;20561260;28;20399;-45
2023/01/24 21:45:08;;;;;;;13.55;7.70;;;2.10;99.90;;;;;;20559032;28;20116;-46
2023/01/24 21:55:09;;;;;;;12.68;7.13;;;2.00;95.90;;;;;;20555714;28;20478;-46
2023/01/24 22:05:10;;;;;;;11.18;6.63;;;1.90;99.90;;;;;;20550576;28;20101;-46
2023/01/24 22:15:15;;;;;;;13.10;6.47;;;1.90;99.90;;;;;;20549767;28;20046;-46
2023/01/24 22:25:18;;;;;;;16.05;7.90;;;1.90;99.90;;;;;;20555588;28;20093;-46
2023/01/24 22:35:21;;;;;;;10.52;6.43;;;1.90;90.90;;;;;;20543537;28;20706;-46
2023/01/24 22:45:27;;;;;;;12.15;6.95;;;1.80;92.20;;;;;;20551149;28;20583;-46
2023/01/24 22:55:28;;;;;;;13.90;8.13;;;1.90;91.20;;;;;;20550036;28;20030;-46
2023/01/24 23:05:29;;;;;;;18.85;6.28;;;1.80;94.50;;;;;;20542267;28;20053;-46
2023/01/24 23:25:50;;;;;;;13.98;8.30;;;1.70;99.90;;;;;;20540732;28;20748;-46
2023/01/24 23:35:51;;;;;;;19.92;9.35;;;1.70;99.90;;;;;;20536453;28;20494;-46
2023/01/24 23:45:52;;;;;;;15.93;7.93;;;1.80;99.90;;;;;;20547403;28;20045;-46
2023/01/24 23:55:54;;;;;;;15.18;6.85;;;1.70;99.90;;;;;;20551739;28;20081;-46
